Terminal Aerodrome Forecast
Issued by NWS Cleveland, OH

Home | Current Version | Previous Version | Graphics & Text | Print | Product List | Glossary On
Versions: 1 2 3 4 5 6 7 8 9 10 11 12 13 14 15 16 17 18 19 20 21
610
FTUS41 KCLE 042337
TAFERI
TAF
KERI 042337Z 0500/0524 04010KT P6SM SCT050 BKN120
     FM050600 06006KT P6SM VCSH SCT015 OVC025
     FM050900 06006KT P6SM VCSH OVC015
     FM051700 02012KT P6SM OVC025=

USA.gov is the U.S. government's official web portal to all federal, state and local government web resources and services.